EDDB

Berlin-Schönefeld International Airport

Berlin, Germany
METAR EDDB 171220Z 16003KT 110V200 9000 SCT010 SCT033 BKN046 01/M00 Q1020 R25/19//95 TEMPO BKN012
Observed Flight Rules
Dec-17 @ 12:20 UTC (31 minutes ago) Visual Flight Rules
Wind Visibility Clouds
160° at 3 knots 8,996 meters
  • Scattered at 1,000' AGL
  • Scattered at 3,300' AGL
  • Broken at 4,600' AGL
Temperatures Readings
Current 1°C / 34°F
Dewpoint 0°C / 32°F
Humidity 93%
Altimeter 30.12" Hg
Pressure 1020 hPa
Elevation 48
METAR EDDB 171220Z 16003KT 110V200 9000 SCT010 SCT033 BKN046 01/M00 Q1020 R25/19//95 TEMPO BKN012
Observed Flight Rules
Dec-17 @ 12:20 UTC
(31 minutes ago)
VFR
Wind Visibility
160° at 3 knots 8,996 meters
Clouds
  • Scattered at 1,000' AGL
  • Scattered at 3,300' AGL
  • Broken at 4,600' AGL
Temperature Dewpoint
1°C / 34°F 0°C / 32°F
Humidity Altimeter Pressure
93% 30.12" Hg 1020 hPa